[source: ADDS]
METAR
EDMA 250620Z 07005KT 040V100 CAVOK 13/08 Q1011 RMK ATIS QUE =
TAF
TAF EDMA 250500Z 2506/2515 05005KT CAVOK =
SR / SS: 04:08 / 18:24 UTC (Referenz EDMA 2014-04-25)
Start Impressum Thomas Duckgeischel
Thomas Duckgeischel
Stellvertreter

Telefon: 07329 / 919200
Fax: 07322 / 931231